sensor_id;sensor_type;location;lat;lon;timestamp;P1;durP1;ratioP1;P2;durP2;ratioP2
83278;SDS011;73398;51.844;10.790;2023-12-20T00:00:28;0.60;;;0.60;;
83278;SDS011;73398;51.844;10.790;2023-12-20T00:02:54;0.30;;;0.30;;
83278;SDS011;73398;51.844;10.790;2023-12-20T00:05:20;0.32;;;0.32;;
83278;SDS011;73398;51.844;10.790;2023-12-20T00:07:46;0.20;;;0.20;;
83278;SDS011;73398;51.844;10.790;2023-12-20T00:10:12;0.20;;;0.20;;
83278;SDS011;73398;51.844;10.790;2023-12-20T00:12:38;0.43;;;0.43;;
83278;SDS011;73398;51.844;10.790;2023-12-20T00:15:04;0.20;;;0.20;;
83278;SDS011;73398;51.844;10.790;2023-12-20T00:17:30;0.40;;;0.40;;
83278;SDS011;73398;51.844;10.790;2023-12-20T00:19:56;0.13;;;0.13;;
83278;SDS011;73398;51.844;10.790;2023-12-20T00:22:22;0.22;;;0.22;;
83278;SDS011;73398;51.844;10.790;2023-12-20T00:24:48;0.40;;;0.40;;
83278;SDS011;73398;51.844;10.790;2023-12-20T00:27:14;0.30;;;0.30;;
83278;SDS011;73398;51.844;10.790;2023-12-20T00:29:40;0.55;;;0.55;;
83278;SDS011;73398;51.844;10.790;2023-12-20T00:32:07;0.25;;;0.25;;
83278;SDS011;73398;51.844;10.790;2023-12-20T00:34:34;0.40;;;0.40;;
83278;SDS011;73398;51.844;10.790;2023-12-20T00:36:59;0.40;;;0.40;;
83278;SDS011;73398;51.844;10.790;2023-12-20T00:39:25;0.20;;;0.20;;
83278;SDS011;73398;51.844;10.790;2023-12-20T00:41:51;0.30;;;0.30;;
83278;SDS011;73398;51.844;10.790;2023-12-20T00:44:17;0.38;;;0.38;;
83278;SDS011;73398;51.844;10.790;2023-12-20T00:46:43;0.57;;;0.52;;
83278;SDS011;73398;51.844;10.790;2023-12-20T00:49:09;0.47;;;0.47;;
83278;SDS011;73398;51.844;10.790;2023-12-20T00:51:35;0.30;;;0.30;;
83278;SDS011;73398;51.844;10.790;2023-12-20T00:54:01;0.30;;;0.30;;
83278;SDS011;73398;51.844;10.790;2023-12-20T00:56:27;0.13;;;0.13;;
83278;SDS011;73398;51.844;10.790;2023-12-20T00:58:53;0.30;;;0.30;;
83278;SDS011;73398;51.844;10.790;2023-12-20T01:01:19;0.47;;;0.40;;
83278;SDS011;73398;51.844;10.790;2023-12-20T01:03:45;0.40;;;0.40;;
83278;SDS011;73398;51.844;10.790;2023-12-20T01:06:11;0.55;;;0.20;;
83278;SDS011;73398;51.844;10.790;2023-12-20T01:08:37;0.30;;;0.30;;
83278;SDS011;73398;51.844;10.790;2023-12-20T01:11:05;0.28;;;0.28;;
83278;SDS011;73398;51.844;10.790;2023-12-20T01:13:31;0.20;;;0.20;;
83278;SDS011;73398;51.844;10.790;2023-12-20T01:15:57;0.20;;;0.20;;
83278;SDS011;73398;51.844;10.790;2023-12-20T01:18:23;0.38;;;0.38;;
83278;SDS011;73398;51.844;10.790;2023-12-20T01:20:49;0.30;;;0.30;;
83278;SDS011;73398;51.844;10.790;2023-12-20T01:23:15;0.20;;;0.20;;
83278;SDS011;73398;51.844;10.790;2023-12-20T01:25:41;0.30;;;0.30;;
83278;SDS011;73398;51.844;10.790;2023-12-20T01:28:08;0.25;;;0.25;;
83278;SDS011;73398;51.844;10.790;2023-12-20T01:30:34;0.28;;;0.28;;
83278;SDS011;73398;51.844;10.790;2023-12-20T01:33:00;0.40;;;0.40;;
83278;SDS011;73398;51.844;10.790;2023-12-20T01:35:26;0.22;;;0.22;;
83278;SDS011;73398;51.844;10.790;2023-12-20T01:37:52;0.22;;;0.22;;
83278;SDS011;73398;51.844;10.790;2023-12-20T01:40:21;0.30;;;0.30;;
83278;SDS011;73398;51.844;10.790;2023-12-20T01:42:47;0.32;;;0.32;;
83278;SDS011;73398;51.844;10.790;2023-12-20T01:45:13;0.22;;;0.22;;
83278;SDS011;73398;51.844;10.790;2023-12-20T01:47:39;0.40;;;0.40;;
83278;SDS011;73398;51.844;10.790;2023-12-20T01:50:05;0.30;;;0.30;;
83278;SDS011;73398;51.844;10.790;2023-12-20T01:52:33;0.50;;;0.50;;
83278;SDS011;73398;51.844;10.790;2023-12-20T01:55:00;0.70;;;0.70;;
83278;SDS011;73398;51.844;10.790;2023-12-20T01:57:28;0.98;;;0.98;;
83278;SDS011;73398;51.844;10.790;2023-12-20T01:59:54;0.73;;;0.73;;
83278;SDS011;73398;51.844;10.790;2023-12-20T02:02:20;0.70;;;0.70;;
83278;SDS011;73398;51.844;10.790;2023-12-20T02:04:46;0.95;;;0.95;;
83278;SDS011;73398;51.844;10.790;2023-12-20T02:07:12;0.88;;;0.88;;
83278;SDS011;73398;51.844;10.790;2023-12-20T02:09:38;0.70;;;0.70;;
83278;SDS011;73398;51.844;10.790;2023-12-20T02:12:05;0.90;;;0.90;;
83278;SDS011;73398;51.844;10.790;2023-12-20T02:14:31;0.88;;;0.88;;
83278;SDS011;73398;51.844;10.790;2023-12-20T02:16:57;0.93;;;0.93;;
83278;SDS011;73398;51.844;10.790;2023-12-20T02:19:23;0.93;;;0.93;;
83278;SDS011;73398;51.844;10.790;2023-12-20T02:21:49;1.33;;;1.23;;
83278;SDS011;73398;51.844;10.790;2023-12-20T02:24:15;1.05;;;1.05;;
83278;SDS011;73398;51.844;10.790;2023-12-20T02:26:42;1.20;;;1.20;;
83278;SDS011;73398;51.844;10.790;2023-12-20T02:29:08;1.20;;;1.20;;
83278;SDS011;73398;51.844;10.790;2023-12-20T02:31:34;1.52;;;1.42;;
83278;SDS011;73398;51.844;10.790;2023-12-20T02:34:00;1.40;;;1.30;;
83278;SDS011;73398;51.844;10.790;2023-12-20T02:36:26;1.52;;;1.42;;
83278;SDS011;73398;51.844;10.790;2023-12-20T02:38:52;1.80;;;1.70;;
83278;SDS011;73398;51.844;10.790;2023-12-20T02:41:18;1.70;;;1.60;;
83278;SDS011;73398;51.844;10.790;2023-12-20T02:43:44;2.15;;;1.83;;
83278;SDS011;73398;51.844;10.790;2023-12-20T02:46:10;1.65;;;1.42;;
83278;SDS011;73398;51.844;10.790;2023-12-20T02:48:35;1.83;;;1.73;;
83278;SDS011;73398;51.844;10.790;2023-12-20T02:51:01;2.22;;;1.65;;
83278;SDS011;73398;51.844;10.790;2023-12-20T02:53:27;2.22;;;2.03;;
83278;SDS011;73398;51.844;10.790;2023-12-20T02:55:53;1.63;;;1.52;;
83278;SDS011;73398;51.844;10.790;2023-12-20T02:58:19;1.60;;;1.50;;
83278;SDS011;73398;51.844;10.790;2023-12-20T03:00:45;2.90;;;1.92;;
83278;SDS011;73398;51.844;10.790;2023-12-20T03:03:11;3.08;;;2.50;;
83278;SDS011;73398;51.844;10.790;2023-12-20T03:05:37;4.63;;;2.55;;
83278;SDS011;73398;51.844;10.790;2023-12-20T03:08:03;4.82;;;3.15;;
83278;SDS011;73398;51.844;10.790;2023-12-20T03:10:29;5.63;;;2.92;;
83278;SDS011;73398;51.844;10.790;2023-12-20T03:12:55;5.72;;;2.83;;
83278;SDS011;73398;51.844;10.790;2023-12-20T03:15:20;4.72;;;3.28;;
83278;SDS011;73398;51.844;10.790;2023-12-20T03:17:46;6.25;;;3.30;;
83278;SDS011;73398;51.844;10.790;2023-12-20T03:20:12;3.45;;;2.70;;
83278;SDS011;73398;51.844;10.790;2023-12-20T03:22:38;4.60;;;2.75;;
83278;SDS011;73398;51.844;10.790;2023-12-20T03:25:04;4.72;;;2.65;;
83278;SDS011;73398;51.844;10.790;2023-12-20T03:27:30;4.05;;;2.70;;
83278;SDS011;73398;51.844;10.790;2023-12-20T03:29:56;4.47;;;2.60;;
83278;SDS011;73398;51.844;10.790;2023-12-20T03:32:22;2.35;;;1.77;;
83278;SDS011;73398;51.844;10.790;2023-12-20T03:34:48;1.77;;;1.50;;
83278;SDS011;73398;51.844;10.790;2023-12-20T03:37:13;2.60;;;1.38;;
83278;SDS011;73398;51.844;10.790;2023-12-20T03:39:39;4.40;;;1.20;;
83278;SDS011;73398;51.844;10.790;2023-12-20T03:42:05;6.00;;;1.77;;
83278;SDS011;73398;51.844;10.790;2023-12-20T03:44:31;1.50;;;1.15;;
83278;SDS011;73398;51.844;10.790;2023-12-20T03:46:57;3.45;;;1.13;;
83278;SDS011;73398;51.844;10.790;2023-12-20T03:49:23;1.85;;;0.82;;
83278;SDS011;73398;51.844;10.790;2023-12-20T03:51:49;1.85;;;1.30;;
83278;SDS011;73398;51.844;10.790;2023-12-20T03:54:15;2.60;;;0.98;;
83278;SDS011;73398;51.844;10.790;2023-12-20T03:56:41;1.83;;;1.25;;
83278;SDS011;73398;51.844;10.790;2023-12-20T03:59:07;3.22;;;1.13;;
83278;SDS011;73398;51.844;10.790;2023-12-20T04:01:32;3.92;;;1.75;;
83278;SDS011;73398;51.844;10.790;2023-12-20T04:03:58;1.95;;;1.33;;
83278;SDS011;73398;51.844;10.790;2023-12-20T04:06:24;0.98;;;0.93;;
83278;SDS011;73398;51.844;10.790;2023-12-20T04:08:50;1.60;;;1.23;;
83278;SDS011;73398;51.844;10.790;2023-12-20T04:11:17;1.88;;;1.15;;
83278;SDS011;73398;51.844;10.790;2023-12-20T04:13:43;4.00;;;1.15;;
83278;SDS011;73398;51.844;10.790;2023-12-20T04:16:08;3.22;;;1.30;;
83278;SDS011;73398;51.844;10.790;2023-12-20T04:18:34;2.63;;;1.30;;
83278;SDS011;73398;51.844;10.790;2023-12-20T04:21:01;2.97;;;1.40;;
83278;SDS011;73398;51.844;10.790;2023-12-20T04:23:27;5.22;;;1.48;;
83278;SDS011;73398;51.844;10.790;2023-12-20T04:25:53;1.30;;;1.20;;
83278;SDS011;73398;51.844;10.790;2023-12-20T04:28:19;2.55;;;1.08;;
83278;SDS011;73398;51.844;10.790;2023-12-20T04:30:45;4.63;;;1.88;;
83278;SDS011;73398;51.844;10.790;2023-12-20T04:33:10;1.67;;;0.93;;
83278;SDS011;73398;51.844;10.790;2023-12-20T04:35:36;2.83;;;1.10;;
83278;SDS011;73398;51.844;10.790;2023-12-20T04:38:02;1.55;;;1.17;;
83278;SDS011;73398;51.844;10.790;2023-12-20T04:40:28;1.35;;;1.17;;
83278;SDS011;73398;51.844;10.790;2023-12-20T04:42:54;2.22;;;1.08;;
83278;SDS011;73398;51.844;10.790;2023-12-20T04:45:20;1.35;;;1.08;;
83278;SDS011;73398;51.844;10.790;2023-12-20T04:47:46;3.67;;;1.35;;
83278;SDS011;73398;51.844;10.790;2023-12-20T04:50:12;2.25;;;1.27;;
83278;SDS011;73398;51.844;10.790;2023-12-20T04:52:39;2.08;;;1.33;;
83278;SDS011;73398;51.844;10.790;2023-12-20T04:55:05;4.28;;;1.50;;
83278;SDS011;73398;51.844;10.790;2023-12-20T04:57:31;1.50;;;1.00;;
83278;SDS011;73398;51.844;10.790;2023-12-20T04:59:57;4.07;;;1.50;;
83278;SDS011;73398;51.844;10.790;2023-12-20T05:02:23;4.13;;;1.33;;
83278;SDS011;73398;51.844;10.790;2023-12-20T05:04:49;1.52;;;1.25;;
83278;SDS011;73398;51.844;10.790;2023-12-20T05:07:14;3.00;;;1.42;;
83278;SDS011;73398;51.844;10.790;2023-12-20T05:09:41;2.90;;;1.20;;
83278;SDS011;73398;51.844;10.790;2023-12-20T05:12:07;2.33;;;1.27;;
83278;SDS011;73398;51.844;10.790;2023-12-20T05:14:33;3.25;;;1.20;;
83278;SDS011;73398;51.844;10.790;2023-12-20T05:16:59;3.53;;;1.10;;
83278;SDS011;73398;51.844;10.790;2023-12-20T05:19:25;3.08;;;1.23;;
83278;SDS011;73398;51.844;10.790;2023-12-20T05:21:51;3.17;;;1.30;;
83278;SDS011;73398;51.844;10.790;2023-12-20T05:24:17;1.92;;;0.80;;
83278;SDS011;73398;51.844;10.790;2023-12-20T05:26:43;4.30;;;1.45;;
83278;SDS011;73398;51.844;10.790;2023-12-20T05:29:09;4.22;;;1.15;;
83278;SDS011;73398;51.844;10.790;2023-12-20T05:31:35;4.20;;;1.15;;
83278;SDS011;73398;51.844;10.790;2023-12-20T05:34:01;1.92;;;1.17;;
83278;SDS011;73398;51.844;10.790;2023-12-20T05:36:26;2.03;;;1.27;;
83278;SDS011;73398;51.844;10.790;2023-12-20T05:38:53;2.40;;;1.08;;
83278;SDS011;73398;51.844;10.790;2023-12-20T05:41:19;2.97;;;1.20;;
83278;SDS011;73398;51.844;10.790;2023-12-20T05:43:46;2.85;;;1.02;;
83278;SDS011;73398;51.844;10.790;2023-12-20T05:46:12;2.33;;;1.45;;
83278;SDS011;73398;51.844;10.790;2023-12-20T05:48:38;2.42;;;1.23;;
83278;SDS011;73398;51.844;10.790;2023-12-20T05:51:04;2.30;;;1.20;;
83278;SDS011;73398;51.844;10.790;2023-12-20T05:53:30;5.03;;;1.27;;
83278;SDS011;73398;51.844;10.790;2023-12-20T05:55:56;2.90;;;1.20;;
83278;SDS011;73398;51.844;10.790;2023-12-20T05:58:22;3.28;;;2.08;;
83278;SDS011;73398;51.844;10.790;2023-12-20T06:00:48;4.72;;;1.60;;
83278;SDS011;73398;51.844;10.790;2023-12-20T06:03:14;4.15;;;1.60;;
83278;SDS011;73398;51.844;10.790;2023-12-20T06:05:40;4.03;;;1.63;;
83278;SDS011;73398;51.844;10.790;2023-12-20T06:08:06;3.08;;;1.70;;
83278;SDS011;73398;51.844;10.790;2023-12-20T06:10:32;4.50;;;1.73;;
83278;SDS011;73398;51.844;10.790;2023-12-20T06:12:58;4.20;;;1.60;;
83278;SDS011;73398;51.844;10.790;2023-12-20T06:15:25;1.50;;;1.40;;
83278;SDS011;73398;51.844;10.790;2023-12-20T06:17:51;3.53;;;1.40;;
83278;SDS011;73398;51.844;10.790;2023-12-20T06:20:17;3.35;;;1.83;;
83278;SDS011;73398;51.844;10.790;2023-12-20T06:22:43;4.53;;;2.20;;
83278;SDS011;73398;51.844;10.790;2023-12-20T06:25:09;2.88;;;1.83;;
83278;SDS011;73398;51.844;10.790;2023-12-20T06:27:35;3.22;;;1.70;;
83278;SDS011;73398;51.844;10.790;2023-12-20T06:30:01;5.40;;;1.92;;
83278;SDS011;73398;51.844;10.790;2023-12-20T06:32:27;3.42;;;2.00;;
83278;SDS011;73398;51.844;10.790;2023-12-20T06:34:54;2.90;;;2.40;;
83278;SDS011;73398;51.844;10.790;2023-12-20T06:37:20;3.63;;;1.98;;
83278;SDS011;73398;51.844;10.790;2023-12-20T06:39:45;2.80;;;1.58;;
83278;SDS011;73398;51.844;10.790;2023-12-20T06:42:12;7.05;;;2.22;;
83278;SDS011;73398;51.844;10.790;2023-12-20T06:44:38;4.57;;;1.83;;
83278;SDS011;73398;51.844;10.790;2023-12-20T06:47:05;7.13;;;2.10;;
83278;SDS011;73398;51.844;10.790;2023-12-20T06:49:30;3.55;;;1.90;;
83278;SDS011;73398;51.844;10.790;2023-12-20T06:51:56;4.97;;;2.63;;
83278;SDS011;73398;51.844;10.790;2023-12-20T06:54:22;4.63;;;2.10;;
83278;SDS011;73398;51.844;10.790;2023-12-20T06:56:48;4.57;;;1.98;;
83278;SDS011;73398;51.844;10.790;2023-12-20T06:59:14;3.92;;;2.05;;
83278;SDS011;73398;51.844;10.790;2023-12-20T07:01:40;4.43;;;1.70;;
83278;SDS011;73398;51.844;10.790;2023-12-20T07:04:06;4.13;;;1.85;;
83278;SDS011;73398;51.844;10.790;2023-12-20T07:06:32;3.83;;;1.65;;
83278;SDS011;73398;51.844;10.790;2023-12-20T07:08:58;5.25;;;2.05;;
83278;SDS011;73398;51.844;10.790;2023-12-20T07:11:24;2.60;;;1.58;;
83278;SDS011;73398;51.844;10.790;2023-12-20T07:13:51;6.13;;;2.10;;
83278;SDS011;73398;51.844;10.790;2023-12-20T07:16:17;8.30;;;2.35;;
83278;SDS011;73398;51.844;10.790;2023-12-20T07:18:43;4.93;;;2.15;;
83278;SDS011;73398;51.844;10.790;2023-12-20T07:21:08;6.47;;;2.45;;
83278;SDS011;73398;51.844;10.790;2023-12-20T07:23:34;6.97;;;1.95;;
83278;SDS011;73398;51.844;10.790;2023-12-20T07:26:00;6.20;;;2.38;;
83278;SDS011;73398;51.844;10.790;2023-12-20T07:28:26;6.90;;;2.50;;
83278;SDS011;73398;51.844;10.790;2023-12-20T07:30:52;3.50;;;1.98;;
83278;SDS011;73398;51.844;10.790;2023-12-20T07:33:18;5.20;;;2.53;;
83278;SDS011;73398;51.844;10.790;2023-12-20T07:35:44;5.22;;;2.20;;
83278;SDS011;73398;51.844;10.790;2023-12-20T07:38:10;6.20;;;2.30;;
83278;SDS011;73398;51.844;10.790;2023-12-20T07:40:37;5.90;;;2.33;;
83278;SDS011;73398;51.844;10.790;2023-12-20T07:43:04;4.68;;;1.98;;
83278;SDS011;73398;51.844;10.790;2023-12-20T07:45:30;3.47;;;2.00;;
83278;SDS011;73398;51.844;10.790;2023-12-20T07:47:56;5.00;;;1.65;;
83278;SDS011;73398;51.844;10.790;2023-12-20T07:50:22;3.70;;;2.28;;
83278;SDS011;73398;51.844;10.790;2023-12-20T07:52:48;5.72;;;2.13;;
83278;SDS011;73398;51.844;10.790;2023-12-20T07:55:13;2.25;;;1.60;;
83278;SDS011;73398;51.844;10.790;2023-12-20T07:57:39;3.30;;;1.80;;
83278;SDS011;73398;51.844;10.790;2023-12-20T08:00:06;3.05;;;1.92;;
83278;SDS011;73398;51.844;10.790;2023-12-20T08:02:32;4.85;;;1.45;;
83278;SDS011;73398;51.844;10.790;2023-12-20T08:04:57;1.90;;;1.50;;
83278;SDS011;73398;51.844;10.790;2023-12-20T08:07:23;3.13;;;1.40;;
83278;SDS011;73398;51.844;10.790;2023-12-20T08:09:49;3.00;;;1.35;;
83278;SDS011;73398;51.844;10.790;2023-12-20T08:12:16;2.05;;;1.60;;
83278;SDS011;73398;51.844;10.790;2023-12-20T08:14:42;4.82;;;2.15;;
83278;SDS011;73398;51.844;10.790;2023-12-20T08:17:08;3.45;;;2.00;;
83278;SDS011;73398;51.844;10.790;2023-12-20T08:19:34;6.80;;;1.77;;
83278;SDS011;73398;51.844;10.790;2023-12-20T08:22:00;5.50;;;2.08;;
83278;SDS011;73398;51.844;10.790;2023-12-20T08:24:26;4.43;;;2.05;;
83278;SDS011;73398;51.844;10.790;2023-12-20T08:26:52;9.63;;;3.13;;
83278;SDS011;73398;51.844;10.790;2023-12-20T08:29:18;4.38;;;2.20;;
83278;SDS011;73398;51.844;10.790;2023-12-20T08:31:43;6.80;;;2.60;;
83278;SDS011;73398;51.844;10.790;2023-12-20T08:34:11;3.88;;;2.53;;
83278;SDS011;73398;51.844;10.790;2023-12-20T08:36:39;6.75;;;2.65;;
83278;SDS011;73398;51.844;10.790;2023-12-20T08:39:05;5.53;;;2.45;;
83278;SDS011;73398;51.844;10.790;2023-12-20T08:41:32;5.40;;;2.17;;
83278;SDS011;73398;51.844;10.790;2023-12-20T08:43:58;4.90;;;2.10;;
83278;SDS011;73398;51.844;10.790;2023-12-20T08:46:24;3.17;;;1.92;;
83278;SDS011;73398;51.844;10.790;2023-12-20T08:48:50;4.22;;;1.77;;
83278;SDS011;73398;51.844;10.790;2023-12-20T08:51:16;11.02;;;2.13;;
83278;SDS011;73398;51.844;10.790;2023-12-20T08:53:42;7.65;;;2.10;;
83278;SDS011;73398;51.844;10.790;2023-12-20T08:56:10;5.85;;;2.25;;
83278;SDS011;73398;51.844;10.790;2023-12-20T08:58:35;4.45;;;1.85;;
83278;SDS011;73398;51.844;10.790;2023-12-20T09:01:01;5.03;;;1.95;;
83278;SDS011;73398;51.844;10.790;2023-12-20T09:03:27;5.60;;;2.72;;
83278;SDS011;73398;51.844;10.790;2023-12-20T09:05:53;5.60;;;2.88;;
83278;SDS011;73398;51.844;10.790;2023-12-20T09:08:19;5.70;;;1.85;;
83278;SDS011;73398;51.844;10.790;2023-12-20T09:10:45;4.20;;;2.05;;
83278;SDS011;73398;51.844;10.790;2023-12-20T09:13:11;4.45;;;2.20;;
83278;SDS011;73398;51.844;10.790;2023-12-20T09:15:37;5.93;;;2.28;;
83278;SDS011;73398;51.844;10.790;2023-12-20T09:18:03;4.80;;;1.85;;
83278;SDS011;73398;51.844;10.790;2023-12-20T09:20:29;6.88;;;2.15;;
83278;SDS011;73398;51.844;10.790;2023-12-20T09:22:55;5.85;;;2.08;;
83278;SDS011;73398;51.844;10.790;2023-12-20T09:25:21;4.35;;;2.05;;
83278;SDS011;73398;51.844;10.790;2023-12-20T09:27:48;3.00;;;2.15;;
83278;SDS011;73398;51.844;10.790;2023-12-20T09:30:14;3.42;;;2.05;;
83278;SDS011;73398;51.844;10.790;2023-12-20T09:32:40;5.38;;;2.38;;
83278;SDS011;73398;51.844;10.790;2023-12-20T09:35:06;5.25;;;2.08;;
83278;SDS011;73398;51.844;10.790;2023-12-20T09:37:33;3.55;;;1.85;;
83278;SDS011;73398;51.844;10.790;2023-12-20T09:39:59;3.83;;;2.33;;
83278;SDS011;73398;51.844;10.790;2023-12-20T09:45:14;5.68;;;2.00;;
83278;SDS011;73398;51.844;10.790;2023-12-20T09:47:43;2.33;;;1.90;;
83278;SDS011;73398;51.844;10.790;2023-12-20T09:50:09;3.38;;;1.55;;
83278;SDS011;73398;51.844;10.790;2023-12-20T09:52:41;3.25;;;1.52;;
83278;SDS011;73398;51.844;10.790;2023-12-20T09:55:08;3.75;;;1.88;;
83278;SDS011;73398;51.844;10.790;2023-12-20T09:57:34;2.90;;;1.63;;
83278;SDS011;73398;51.844;10.790;2023-12-20T10:00:00;4.68;;;1.67;;
83278;SDS011;73398;51.844;10.790;2023-12-20T10:02:26;4.05;;;2.33;;
83278;SDS011;73398;51.844;10.790;2023-12-20T10:04:53;6.45;;;2.00;;
83278;SDS011;73398;51.844;10.790;2023-12-20T10:07:20;4.05;;;1.92;;
83278;SDS011;73398;51.844;10.790;2023-12-20T10:09:47;3.63;;;2.42;;
83278;SDS011;73398;51.844;10.790;2023-12-20T10:12:13;4.47;;;2.53;;
83278;SDS011;73398;51.844;10.790;2023-12-20T10:14:39;3.63;;;2.00;;
83278;SDS011;73398;51.844;10.790;2023-12-20T10:17:05;2.80;;;2.00;;
83278;SDS011;73398;51.844;10.790;2023-12-20T10:19:34;3.63;;;1.80;;
83278;SDS011;73398;51.844;10.790;2023-12-20T10:22:00;4.45;;;1.60;;
83278;SDS011;73398;51.844;10.790;2023-12-20T10:24:30;2.03;;;1.50;;
83278;SDS011;73398;51.844;10.790;2023-12-20T10:27:03;3.20;;;1.60;;
83278;SDS011;73398;51.844;10.790;2023-12-20T10:29:35;2.25;;;1.40;;
83278;SDS011;73398;51.844;10.790;2023-12-20T10:34:46;1.35;;;1.25;;
83278;SDS011;73398;51.844;10.790;2023-12-20T10:37:12;1.27;;;1.27;;
83278;SDS011;73398;51.844;10.790;2023-12-20T10:39:38;1.58;;;1.00;;
83278;SDS011;73398;51.844;10.790;2023-12-20T10:42:04;1.60;;;1.50;;
83278;SDS011;73398;51.844;10.790;2023-12-20T10:44:31;2.03;;;1.42;;
83278;SDS011;73398;51.844;10.790;2023-12-20T10:46:57;1.05;;;1.00;;
83278;SDS011;73398;51.844;10.790;2023-12-20T10:49:23;1.02;;;1.02;;
83278;SDS011;73398;51.844;10.790;2023-12-20T10:51:50;1.10;;;1.10;;
83278;SDS011;73398;51.844;10.790;2023-12-20T10:54:16;1.23;;;1.05;;
83278;SDS011;73398;51.844;10.790;2023-12-20T10:56:42;1.10;;;1.10;;
83278;SDS011;73398;51.844;10.790;2023-12-20T10:59:10;1.63;;;1.13;;
83278;SDS011;73398;51.844;10.790;2023-12-20T11:01:37;1.15;;;0.98;;
83278;SDS011;73398;51.844;10.790;2023-12-20T11:04:03;1.65;;;1.02;;
83278;SDS011;73398;51.844;10.790;2023-12-20T11:06:35;2.08;;;1.45;;
83278;SDS011;73398;51.844;10.790;2023-12-20T11:14:31;2.30;;;1.63;;
83278;SDS011;73398;51.844;10.790;2023-12-20T11:17:10;2.95;;;1.27;;
83278;SDS011;73398;51.844;10.790;2023-12-20T11:22:27;3.42;;;1.90;;
83278;SDS011;73398;51.844;10.790;2023-12-20T11:24:53;3.85;;;1.90;;
83278;SDS011;73398;51.844;10.790;2023-12-20T11:27:20;5.93;;;2.17;;
83278;SDS011;73398;51.844;10.790;2023-12-20T11:29:53;4.00;;;2.10;;
83278;SDS011;73398;51.844;10.790;2023-12-20T11:34:57;2.90;;;1.58;;
83278;SDS011;73398;51.844;10.790;2023-12-20T11:37:30;3.20;;;1.95;;
83278;SDS011;73398;51.844;10.790;2023-12-20T11:42:32;1.85;;;1.40;;
83278;SDS011;73398;51.844;10.790;2023-12-20T11:44:58;2.25;;;1.30;;
83278;SDS011;73398;51.844;10.790;2023-12-20T11:47:25;1.55;;;1.45;;
83278;SDS011;73398;51.844;10.790;2023-12-20T11:49:50;1.95;;;1.50;;
83278;SDS011;73398;51.844;10.790;2023-12-20T11:52:16;2.70;;;1.50;;
83278;SDS011;73398;51.844;10.790;2023-12-20T11:54:42;6.35;;;1.73;;
83278;SDS011;73398;51.844;10.790;2023-12-20T11:57:08;1.67;;;1.15;;
83278;SDS011;73398;51.844;10.790;2023-12-20T11:59:35;1.95;;;1.55;;
83278;SDS011;73398;51.844;10.790;2023-12-20T12:02:02;1.25;;;1.25;;
83278;SDS011;73398;51.844;10.790;2023-12-20T12:04:28;1.50;;;1.40;;
83278;SDS011;73398;51.844;10.790;2023-12-20T12:06:54;1.38;;;1.20;;
83278;SDS011;73398;51.844;10.790;2023-12-20T12:09:20;1.73;;;1.30;;
83278;SDS011;73398;51.844;10.790;2023-12-20T12:11:45;2.22;;;1.95;;
83278;SDS011;73398;51.844;10.790;2023-12-20T12:14:11;2.03;;;1.13;;
83278;SDS011;73398;51.844;10.790;2023-12-20T12:16:37;1.27;;;1.17;;
83278;SDS011;73398;51.844;10.790;2023-12-20T12:19:03;1.77;;;1.00;;
83278;SDS011;73398;51.844;10.790;2023-12-20T12:21:29;1.30;;;1.13;;
83278;SDS011;73398;51.844;10.790;2023-12-20T12:24:05;1.00;;;1.00;;
83278;SDS011;73398;51.844;10.790;2023-12-20T12:26:31;0.93;;;0.93;;
83278;SDS011;73398;51.844;10.790;2023-12-20T12:28:57;1.45;;;1.35;;
83278;SDS011;73398;51.844;10.790;2023-12-20T12:31:23;1.02;;;1.02;;
83278;SDS011;73398;51.844;10.790;2023-12-20T12:33:51;1.40;;;1.30;;
83278;SDS011;73398;51.844;10.790;2023-12-20T12:36:17;1.60;;;1.50;;
83278;SDS011;73398;51.844;10.790;2023-12-20T12:38:43;1.90;;;1.23;;
83278;SDS011;73398;51.844;10.790;2023-12-20T12:41:09;1.98;;;1.50;;
83278;SDS011;73398;51.844;10.790;2023-12-20T12:43:35;1.63;;;1.45;;
83278;SDS011;73398;51.844;10.790;2023-12-20T12:46:01;1.40;;;1.30;;
83278;SDS011;73398;51.844;10.790;2023-12-20T12:48:27;1.30;;;1.20;;
83278;SDS011;73398;51.844;10.790;2023-12-20T12:50:53;1.23;;;1.15;;
83278;SDS011;73398;51.844;10.790;2023-12-20T12:53:22;1.00;;;1.00;;
83278;SDS011;73398;51.844;10.790;2023-12-20T12:55:48;0.90;;;0.90;;
83278;SDS011;73398;51.844;10.790;2023-12-20T12:58:14;2.08;;;1.88;;
83278;SDS011;73398;51.844;10.790;2023-12-20T13:00:40;5.70;;;3.63;;
83278;SDS011;73398;51.844;10.790;2023-12-20T13:03:07;0.93;;;0.93;;
83278;SDS011;73398;51.844;10.790;2023-12-20T13:05:33;0.95;;;0.95;;
83278;SDS011;73398;51.844;10.790;2023-12-20T13:07:59;1.27;;;1.27;;
83278;SDS011;73398;51.844;10.790;2023-12-20T13:10:25;1.00;;;1.00;;
83278;SDS011;73398;51.844;10.790;2023-12-20T13:12:51;1.23;;;1.13;;
83278;SDS011;73398;51.844;10.790;2023-12-20T13:15:17;1.90;;;1.10;;
83278;SDS011;73398;51.844;10.790;2023-12-20T13:17:43;1.60;;;1.50;;
83278;SDS011;73398;51.844;10.790;2023-12-20T13:20:11;1.77;;;1.20;;
83278;SDS011;73398;51.844;10.790;2023-12-20T13:22:37;1.50;;;1.40;;
83278;SDS011;73398;51.844;10.790;2023-12-20T13:25:03;2.47;;;1.50;;
83278;SDS011;73398;51.844;10.790;2023-12-20T13:27:29;1.80;;;1.45;;
83278;SDS011;73398;51.844;10.790;2023-12-20T13:29:55;1.33;;;1.25;;
83278;SDS011;73398;51.844;10.790;2023-12-20T13:32:20;2.92;;;2.72;;
83278;SDS011;73398;51.844;10.790;2023-12-20T13:34:47;1.73;;;1.63;;
83278;SDS011;73398;51.844;10.790;2023-12-20T13:37:13;1.80;;;1.70;;
83278;SDS011;73398;51.844;10.790;2023-12-20T13:39:39;2.88;;;2.00;;
83278;SDS011;73398;51.844;10.790;2023-12-20T13:42:06;3.60;;;3.30;;
83278;SDS011;73398;51.844;10.790;2023-12-20T13:44:32;2.95;;;2.50;;
83278;SDS011;73398;51.844;10.790;2023-12-20T13:46:59;2.22;;;1.90;;
83278;SDS011;73398;51.844;10.790;2023-12-20T13:49:25;1.20;;;1.10;;
83278;SDS011;73398;51.844;10.790;2023-12-20T13:51:51;1.25;;;1.10;;
83278;SDS011;73398;51.844;10.790;2023-12-20T13:54:18;1.50;;;1.30;;
83278;SDS011;73398;51.844;10.790;2023-12-20T13:56:46;2.92;;;2.10;;
83278;SDS011;73398;51.844;10.790;2023-12-20T13:59:12;2.65;;;2.45;;
83278;SDS011;73398;51.844;10.790;2023-12-20T14:01:39;2.80;;;2.25;;
83278;SDS011;73398;51.844;10.790;2023-12-20T14:04:05;2.50;;;2.30;;
83278;SDS011;73398;51.844;10.790;2023-12-20T14:06:32;1.80;;;1.05;;
83278;SDS011;73398;51.844;10.790;2023-12-20T14:08:58;2.90;;;1.50;;
83278;SDS011;73398;51.844;10.790;2023-12-20T14:11:27;3.15;;;1.50;;
83278;SDS011;73398;51.844;10.790;2023-12-20T14:13:53;2.25;;;1.33;;
83278;SDS011;73398;51.844;10.790;2023-12-20T14:16:22;4.90;;;2.40;;
83278;SDS011;73398;51.844;10.790;2023-12-20T14:18:48;2.17;;;1.40;;
83278;SDS011;73398;51.844;10.790;2023-12-20T14:21:16;1.77;;;1.23;;
83278;SDS011;73398;51.844;10.790;2023-12-20T14:23:43;1.35;;;0.93;;
83278;SDS011;73398;51.844;10.790;2023-12-20T14:26:09;2.08;;;1.30;;
83278;SDS011;73398;51.844;10.790;2023-12-20T14:28:40;2.42;;;1.10;;
83278;SDS011;73398;51.844;10.790;2023-12-20T14:31:06;1.00;;;1.00;;
83278;SDS011;73398;51.844;10.790;2023-12-20T14:33:32;1.00;;;1.00;;
83278;SDS011;73398;51.844;10.790;2023-12-20T14:35:58;2.00;;;1.30;;
83278;SDS011;73398;51.844;10.790;2023-12-20T14:38:23;2.55;;;2.35;;
83278;SDS011;73398;51.844;10.790;2023-12-20T14:40:50;3.97;;;2.72;;
83278;SDS011;73398;51.844;10.790;2023-12-20T14:43:16;3.13;;;2.83;;
83278;SDS011;73398;51.844;10.790;2023-12-20T14:45:42;2.55;;;1.90;;